createdAt,value
2024-04-06T00:01:24.594Z,73.47
2024-04-06T00:05:01.259Z,74.35
2024-04-06T00:08:18.333Z,73.13
2024-04-06T00:11:44.802Z,74.31
2024-04-06T00:15:11.649Z,73.36
2024-04-06T00:18:40.245Z,72.67
2024-04-06T00:22:07.514Z,73.48
2024-04-06T00:25:54.340Z,73.80
2024-04-06T00:29:20.939Z,74.65
2024-04-06T00:32:47.462Z,73.78
2024-04-06T00:36:14.235Z,73.46
2024-04-06T00:39:40.632Z,73.80
2024-04-06T00:43:08.024Z,73.36
2024-04-06T00:46:34.472Z,72.26
2024-04-06T00:50:00.971Z,70.70
2024-04-06T00:53:27.451Z,70.50
2024-04-06T00:56:54.593Z,69.95
2024-04-06T01:00:21.832Z,69.26
2024-04-06T01:03:48.521Z,69.21
2024-04-06T01:07:15.105Z,68.44
2024-04-06T01:10:41.850Z,67.58
2024-04-06T01:14:08.717Z,67.38
2024-04-06T01:17:35.266Z,67.55
2024-04-06T01:21:04.683Z,67.69
2024-04-06T01:24:34.303Z,67.91
2024-04-06T01:28:00.768Z,67.85
2024-04-06T01:31:47.362Z,67.61
2024-04-06T02:04:21.653Z,81.59
2024-04-06T02:07:48.133Z,80.52
2024-04-06T02:11:14.582Z,77.18
2024-04-06T02:14:41.047Z,74.15
2024-04-06T02:18:07.943Z,71.76
2024-04-06T02:21:34.617Z,72.24
2024-04-06T02:25:01.079Z,70.59
2024-04-06T02:28:27.439Z,69.40
2024-04-06T02:31:54.124Z,68.31
2024-04-06T02:35:20.874Z,68.07
2024-04-06T02:38:49.715Z,67.50
2024-04-06T02:42:16.167Z,67.19
2024-04-06T02:45:42.948Z,67.75
2024-04-06T02:49:09.479Z,67.40
2024-04-06T02:52:35.947Z,66.90
2024-04-06T02:56:02.460Z,66.53
2024-04-06T02:59:38.925Z,66.33
2024-04-06T03:03:06.026Z,66.15
2024-04-06T03:06:32.559Z,65.66
2024-04-06T03:09:59.210Z,65.11
2024-04-06T03:13:25.635Z,66.06
2024-04-06T03:16:52.314Z,65.87
2024-04-06T03:20:18.922Z,65.90
2024-04-06T03:23:45.376Z,65.86
2024-04-06T03:27:11.921Z,65.66
2024-04-06T03:30:38.412Z,65.21
2024-04-06T03:34:05.460Z,65.62
2024-04-06T03:37:31.878Z,65.58
2024-04-06T03:40:58.532Z,65.79
2024-04-06T03:44:24.980Z,65.64
2024-04-06T03:47:52.219Z,65.48
2024-04-06T03:51:19.422Z,65.55
2024-04-06T03:54:45.960Z,65.42
2024-04-06T03:58:12.425Z,65.27
2024-04-06T04:01:38.927Z,65.28
2024-04-06T04:05:06.742Z,65.38
2024-04-06T04:08:34.204Z,66.44
2024-04-06T04:12:01.460Z,66.52
2024-04-06T04:15:27.884Z,65.99
2024-04-06T04:18:54.617Z,66.27
2024-04-06T04:22:21.176Z,66.63
2024-04-06T04:25:47.529Z,67.01
2024-04-06T04:29:16.420Z,66.56
2024-04-06T04:32:42.906Z,66.97
2024-04-06T04:36:11.618Z,66.66
2024-04-06T04:39:38.127Z,66.90
2024-04-06T04:43:05.850Z,66.52
2024-04-06T04:46:32.572Z,66.64
2024-04-06T04:49:58.885Z,67.22
2024-04-06T04:53:25.524Z,67.19
2024-04-06T04:56:52.044Z,67.80
2024-04-06T05:00:18.415Z,67.40
2024-04-06T05:03:47.539Z,67.54
2024-04-06T05:07:16.429Z,67.83
2024-04-06T05:10:45.371Z,68.27
2024-04-06T05:14:12.035Z,68.01
2024-04-06T05:17:38.777Z,67.40
2024-04-06T05:21:05.263Z,67.06
2024-04-06T05:24:31.922Z,66.78
2024-04-06T05:27:58.343Z,66.68
2024-04-06T05:31:24.831Z,66.51
2024-04-06T05:34:51.448Z,66.24
2024-04-06T05:38:19.543Z,67.10
2024-04-06T05:41:46.005Z,66.72
2024-04-06T05:45:12.539Z,66.51
2024-04-06T05:48:39.632Z,66.29
2024-04-06T05:52:06.767Z,65.82
2024-04-06T05:55:34.329Z,65.75
2024-04-06T05:59:00.779Z,65.61
2024-04-06T06:02:27.226Z,65.46
2024-04-06T06:05:54.032Z,64.93
2024-04-06T06:09:20.527Z,64.45
2024-04-06T06:12:47.271Z,63.77
2024-04-06T06:16:13.584Z,63.76
2024-04-06T06:19:40.101Z,63.73
2024-04-06T06:23:06.869Z,63.49
2024-04-06T06:26:33.276Z,63.69
2024-04-06T06:30:01.215Z,63.22
2024-04-06T06:33:27.738Z,63.81
2024-04-06T06:44:53.826Z,62.98
2024-04-06T06:47:41.853Z,62.90
2024-04-06T06:51:04.485Z,63.12
2024-04-06T06:54:30.994Z,62.07
2024-04-06T06:57:57.548Z,61.71
2024-04-06T07:01:24.117Z,62.81
2024-04-06T07:04:50.533Z,62.93
2024-04-06T07:08:17.989Z,62.71
2024-04-06T07:11:44.647Z,63.12
2024-04-06T07:15:11.797Z,63.64
2024-04-06T07:18:39.887Z,63.43
2024-04-06T07:22:06.583Z,63.66
2024-04-06T07:25:33.167Z,63.40
2024-04-06T07:28:59.678Z,63.12
2024-04-06T07:32:26.128Z,63.01
2024-04-06T07:35:52.653Z,62.72
2024-04-06T07:39:20.496Z,62.39
2024-04-06T07:42:47.104Z,61.56
2024-04-06T07:46:13.650Z,62.01
2024-04-06T07:49:40.752Z,61.72
2024-04-06T07:53:07.365Z,61.84
2024-04-06T07:56:33.812Z,61.90
2024-04-06T08:00:02.341Z,61.58
2024-04-06T08:03:29.104Z,61.51
2024-04-06T08:06:57.007Z,61.16
2024-04-06T08:10:24.684Z,60.66
2024-04-06T08:13:51.172Z,60.09
2024-04-06T08:17:18.278Z,59.56
2024-04-06T08:20:44.974Z,61.66
2024-04-06T08:24:11.441Z,62.72
2024-04-06T08:27:38.524Z,61.08
2024-04-06T08:31:05.803Z,59.50
2024-04-06T08:34:32.290Z,59.45
2024-04-06T08:37:58.738Z,61.47
2024-04-06T08:41:26.549Z,62.77
2024-04-06T08:44:54.241Z,59.25
2024-04-06T08:48:22.845Z,59.45
2024-04-06T08:51:50.213Z,61.11
2024-04-06T08:55:16.697Z,61.59
2024-04-06T08:58:45.419Z,60.00
2024-04-06T09:02:10.409Z,62.27
2024-04-06T09:05:42.637Z,59.41
2024-04-06T09:09:09.199Z,57.94
2024-04-06T09:12:36.588Z,59.27
2024-04-06T09:16:03.654Z,59.10
2024-04-06T09:19:30.598Z,59.64
2024-04-06T09:22:59.958Z,61.06
2024-04-06T09:26:32.134Z,61.06
2024-04-06T09:29:58.730Z,59.44
2024-04-06T09:33:25.886Z,60.90
2024-04-06T09:36:57.755Z,60.31
2024-04-06T09:40:26.687Z,59.98
2024-04-06T09:43:54.423Z,59.41
2024-04-06T09:47:23.645Z,58.59
2024-04-06T09:50:34.061Z,58.87
2024-04-06T09:53:42.722Z,57.66
2024-04-06T09:57:10.196Z,57.50
2024-04-06T10:00:25.449Z,56.55
2024-04-06T10:03:38.257Z,56.43
2024-04-06T10:07:06.782Z,56.35
2024-04-06T10:10:33.540Z,56.20
2024-04-06T10:14:04.397Z,54.05
2024-04-06T10:17:14.949Z,54.71
2024-04-06T10:20:43.375Z,56.05
2024-04-06T10:24:04.106Z,55.65
2024-04-06T10:27:41.205Z,53.91
2024-04-06T10:31:10.381Z,54.02
2024-04-06T10:34:45.972Z,53.67
2024-04-06T10:38:09.594Z,54.67
2024-04-06T10:41:16.083Z,55.12
2024-04-06T10:44:42.512Z,53.86
2024-04-06T10:48:10.136Z,52.80
2024-04-06T10:51:28.016Z,50.71
2024-04-06T10:54:37.670Z,49.40
2024-04-06T10:58:06.445Z,50.66
2024-04-06T11:01:18.983Z,50.49
2024-04-06T11:04:47.280Z,50.07
2024-04-06T11:08:13.828Z,50.44
2024-04-06T11:11:41.122Z,49.98
2024-04-06T11:15:08.778Z,51.19
2024-04-06T11:18:18.156Z,48.29
2024-04-06T11:21:27.437Z,48.87
2024-04-06T11:24:54.281Z,48.75
2024-04-06T11:28:00.502Z,50.06
2024-04-06T11:31:17.708Z,50.29
2024-04-06T11:34:44.288Z,49.27
2024-04-06T11:37:53.347Z,49.15
2024-04-06T11:41:10.027Z,49.60
2024-04-06T11:44:24.930Z,49.67
2024-04-06T11:48:10.976Z,49.90
2024-04-06T11:51:07.819Z,49.39
2024-04-06T11:54:17.179Z,49.57
2024-04-06T11:57:32.565Z,50.30
2024-04-06T12:00:41.759Z,51.04
2024-04-06T12:03:48.004Z,48.42
2024-04-06T12:07:03.438Z,47.28
2024-04-06T12:10:21.139Z,46.48
2024-04-06T12:13:47.883Z,47.51
2024-04-06T12:17:20.699Z,47.93
2024-04-06T12:20:31.697Z,46.96
2024-04-06T12:23:47.805Z,47.98
2024-04-06T12:27:04.341Z,48.92
2024-04-06T12:30:22.411Z,48.45
2024-04-06T12:33:39.170Z,48.45
2024-04-06T12:36:55.382Z,49.77
2024-04-06T12:40:22.126Z,49.85
2024-04-06T12:43:48.611Z,50.48
2024-04-06T12:46:55.123Z,49.41
2024-04-06T12:50:21.561Z,49.67
2024-04-06T12:53:27.814Z,49.91
2024-04-06T12:56:57.098Z,51.12
2024-04-06T13:00:31.518Z,50.34
2024-04-06T13:03:43.186Z,50.45
2024-04-06T13:07:12.904Z,49.97
2024-04-06T13:10:19.176Z,48.31
2024-04-06T13:13:34.856Z,48.93
2024-04-06T13:16:55.310Z,48.42
2024-04-06T13:20:10.569Z,49.42
2024-04-06T13:23:29.540Z,49.15
2024-04-06T13:26:45.640Z,48.97
2024-04-06T13:30:13.852Z,48.61
2024-04-06T13:33:29.972Z,49.64
2024-04-06T13:36:46.262Z,49.58
2024-04-06T13:40:15.219Z,49.91
2024-04-06T13:43:21.533Z,49.68
2024-04-06T13:46:48.789Z,48.57
2024-04-06T13:50:15.217Z,48.49
2024-04-06T13:53:31.400Z,47.84
2024-04-06T13:56:58.060Z,47.17
2024-04-06T14:00:24.527Z,46.59
2024-04-06T14:03:50.971Z,47.24
2024-04-06T14:07:06.355Z,47.11
2024-04-06T14:10:26.621Z,47.73
2024-04-06T14:13:53.756Z,46.96
2024-04-06T14:17:20.855Z,46.30
2024-04-06T14:20:27.245Z,46.74
2024-04-06T14:23:52.984Z,46.39
2024-04-06T14:27:10.090Z,44.80
2024-04-06T14:30:29.733Z,45.88
2024-04-06T14:33:36.000Z,46.38
2024-04-06T14:36:53.470Z,45.98
2024-04-06T14:40:20.530Z,46.60
2024-04-06T14:43:26.843Z,45.71
2024-04-06T14:46:33.504Z,47.08
2024-04-06T14:49:58.847Z,46.09
2024-04-06T14:53:25.375Z,47.13
2024-04-06T14:56:51.910Z,45.70
2024-04-06T15:00:18.811Z,45.68
2024-04-06T15:03:35.744Z,45.49
2024-04-06T15:07:02.392Z,45.69
2024-04-06T15:10:28.920Z,46.17
2024-04-06T15:13:55.353Z,45.51
2024-04-06T15:17:21.832Z,44.53
2024-04-06T15:20:41.815Z,44.79
2024-04-06T15:24:01.806Z,44.88
2024-04-06T15:27:28.309Z,45.84
2024-04-06T15:30:37.903Z,46.38
2024-04-06T15:34:07.175Z,45.96
2024-04-06T15:37:33.582Z,46.03
2024-04-06T15:40:40.389Z,45.17
2024-04-06T15:44:07.257Z,44.72
2024-04-06T15:47:33.849Z,45.07
2024-04-06T15:51:00.387Z,45.19
2024-04-06T15:54:26.936Z,45.71
2024-04-06T15:57:53.394Z,46.32
2024-04-06T16:01:13.445Z,46.61
2024-04-06T16:04:41.476Z,47.37
2024-04-06T16:07:58.845Z,47.87
2024-04-06T16:11:10.250Z,47.88
2024-04-06T16:14:37.382Z,47.19
2024-04-06T16:17:57.485Z,47.28
2024-04-06T16:21:24.030Z,46.82
2024-04-06T16:24:44.737Z,46.55
2024-04-06T16:27:50.938Z,46.00
2024-04-06T16:31:17.555Z,45.84
2024-04-06T16:34:44.111Z,44.82
2024-04-06T16:38:10.459Z,44.87
2024-04-06T16:41:37.649Z,44.98
2024-04-06T16:45:05.045Z,45.40
2024-04-06T16:48:31.559Z,45.90
2024-04-06T16:51:58.111Z,46.43
2024-04-06T16:55:08.554Z,47.26
2024-04-06T16:58:24.673Z,48.07
2024-04-06T17:01:51.896Z,48.43
2024-04-06T17:05:21.919Z,48.69
2024-04-06T17:08:48.654Z,49.44
2024-04-06T17:12:15.251Z,50.04
2024-04-06T17:15:43.382Z,50.59
2024-04-06T17:19:09.896Z,50.02
2024-04-06T17:22:38.284Z,50.63
2024-04-06T17:25:44.671Z,51.89
2024-04-06T17:28:51.959Z,52.28
2024-04-06T17:32:08.529Z,51.55
2024-04-06T17:35:17.453Z,52.76
2024-04-06T17:38:38.933Z,56.18
2024-04-06T17:42:05.855Z,54.62
2024-04-06T17:45:33.045Z,55.77
2024-04-06T17:48:59.856Z,55.81
2024-04-06T17:52:17.427Z,56.30
2024-04-06T17:55:43.803Z,57.21
2024-04-06T17:59:10.414Z,58.00
2024-04-06T18:02:17.091Z,58.63
2024-04-06T18:05:35.970Z,58.74
2024-04-06T18:09:03.698Z,60.77
2024-04-06T18:12:30.187Z,67.99
2024-04-06T18:16:00.876Z,68.70
2024-04-06T18:19:27.368Z,66.95
2024-04-06T18:22:53.794Z,64.05
2024-04-06T18:26:20.385Z,59.67
2024-04-06T18:29:36.852Z,57.09
2024-04-06T18:33:04.864Z,55.99
2024-04-06T18:36:31.298Z,56.64
2024-04-06T18:39:57.800Z,57.32
2024-04-06T18:43:24.500Z,58.11
2024-04-06T18:46:52.480Z,58.83
2024-04-06T18:50:01.657Z,59.69
2024-04-06T18:53:10.750Z,60.06
2024-04-06T18:56:38.568Z,61.10
2024-04-06T19:00:05.434Z,65.82
2024-04-06T19:03:31.819Z,68.15
2024-04-06T19:06:58.239Z,65.67
2024-04-06T19:10:25.209Z,62.80
2024-04-06T19:13:51.655Z,59.85
2024-04-06T19:17:18.040Z,55.43
2024-04-06T19:20:44.693Z,55.70
2024-04-06T19:24:01.874Z,57.21
2024-04-06T19:27:28.293Z,57.78
2024-04-06T19:30:56.243Z,59.03
2024-04-06T19:34:22.696Z,59.81
2024-04-06T19:37:39.247Z,60.99
2024-04-06T19:41:06.675Z,66.16
2024-04-06T19:44:33.322Z,68.12
2024-04-06T19:48:00.780Z,65.77
2024-04-06T19:51:27.296Z,63.58
2024-04-06T19:54:53.637Z,61.71
2024-04-06T19:58:20.182Z,59.68
2024-04-06T20:01:46.639Z,56.76
2024-04-06T20:05:13.830Z,57.43
2024-04-06T20:08:40.397Z,58.87
2024-04-06T20:12:08.001Z,59.30
2024-04-06T20:15:34.719Z,59.58
2024-04-06T20:19:01.504Z,60.48
2024-04-06T20:22:46.048Z,65.98
2024-04-06T20:26:15.047Z,67.93
2024-04-06T20:29:43.948Z,64.78
2024-04-06T20:33:10.453Z,63.00
2024-04-06T20:36:38.063Z,60.88
2024-04-06T20:39:55.585Z,58.95
2024-04-06T20:43:13.148Z,56.38
2024-04-06T20:46:40.402Z,57.50
2024-04-06T20:50:08.261Z,59.22
2024-04-06T20:53:35.005Z,61.84
2024-04-06T20:57:01.961Z,67.67
2024-04-06T21:00:11.532Z,67.89
2024-04-06T21:03:38.073Z,64.93
2024-04-06T21:07:03.746Z,62.55
2024-04-06T21:10:31.687Z,61.48
2024-04-06T21:13:58.162Z,60.51
2024-04-06T21:17:14.434Z,57.64
2024-04-06T21:20:31.735Z,57.66
2024-04-06T21:23:50.784Z,59.43
2024-04-06T21:27:17.250Z,59.61
2024-04-06T21:30:43.684Z,64.71
2024-04-06T21:34:10.041Z,66.74
2024-04-06T21:37:36.827Z,64.82
2024-04-06T21:41:06.876Z,62.70
2024-04-06T21:44:33.433Z,61.31
2024-04-06T21:47:59.842Z,57.73
2024-04-06T21:51:26.620Z,56.15
2024-04-06T21:54:52.060Z,58.19
2024-04-06T21:58:18.550Z,58.93
2024-04-06T22:01:45.055Z,59.94
2024-04-06T22:05:11.401Z,63.78
2024-04-06T22:08:38.113Z,66.92
2024-04-06T22:12:06.553Z,65.11
2024-04-06T22:15:31.816Z,62.42
2024-04-06T22:18:58.284Z,61.00
2024-04-06T22:22:24.868Z,57.72
2024-04-06T22:25:51.266Z,56.65
2024-04-06T22:29:18.080Z,58.02
2024-04-06T22:32:44.600Z,59.04
2024-04-06T22:36:11.417Z,60.93
2024-04-06T22:39:38.054Z,65.02
2024-04-06T22:43:04.746Z,67.59
2024-04-06T22:46:31.240Z,65.45
2024-04-06T22:49:57.733Z,62.95
2024-04-06T22:53:24.410Z,61.17
2024-04-06T22:56:51.066Z,58.65
2024-04-06T23:00:13.740Z,56.15
2024-04-06T23:03:40.272Z,56.82
2024-04-06T23:07:07.053Z,58.38
2024-04-06T23:10:33.794Z,59.85
2024-04-06T23:14:00.344Z,64.47
2024-04-06T23:17:27.118Z,66.91
2024-04-06T23:20:53.645Z,65.03
2024-04-06T23:24:20.582Z,62.93
2024-04-06T23:27:47.186Z,61.06
2024-04-06T23:31:13.849Z,59.01
2024-04-06T23:34:41.369Z,56.36
2024-04-06T23:38:08.307Z,56.76
2024-04-06T23:41:34.784Z,58.22
2024-04-06T23:45:01.532Z,59.98
2024-04-06T23:48:28.330Z,64.41
2024-04-06T23:51:55.255Z,67.16
2024-04-06T23:55:21.852Z,65.30
2024-04-06T23:58:48.518Z,63.19
